createdAt,value
2017-10-29T00:01:36.223Z,1.70
2017-10-29T00:04:06.981Z,1.70
2017-10-29T00:06:37.749Z,1.60
2017-10-29T00:09:08.539Z,1.73
2017-10-29T00:11:39.289Z,1.57
2017-10-29T00:14:10.052Z,1.90
2017-10-29T00:16:40.836Z,1.57
2017-10-29T00:19:11.599Z,1.87
2017-10-29T00:21:42.352Z,1.70
2017-10-29T00:24:13.125Z,1.73
2017-10-29T00:26:43.921Z,1.80
2017-10-29T00:29:14.680Z,1.50
2017-10-29T00:31:45.472Z,1.70
2017-10-29T00:34:16.241Z,1.80
2017-10-29T00:36:47.003Z,1.60
2017-10-29T00:39:17.751Z,1.73
2017-10-29T00:41:48.562Z,1.37
2017-10-29T00:44:19.332Z,1.60
2017-10-29T00:46:50.100Z,1.60
2017-10-29T00:49:20.861Z,1.40
2017-10-29T00:51:51.624Z,1.50
2017-10-29T00:54:22.413Z,1.60
2017-10-29T00:56:53.152Z,1.60
2017-10-29T00:59:23.938Z,1.37
2017-10-29T01:01:54.692Z,1.60
2017-10-29T01:04:25.456Z,1.50
2017-10-29T01:06:56.212Z,1.50
2017-10-29T01:09:26.984Z,1.50
2017-10-29T01:11:57.745Z,1.40
2017-10-29T01:14:28.517Z,1.70
2017-10-29T01:16:59.283Z,1.40
2017-10-29T01:19:30.052Z,1.50
2017-10-29T01:22:00.804Z,1.50
2017-10-29T01:24:31.588Z,1.57
2017-10-29T01:27:02.361Z,1.50
2017-10-29T01:29:33.124Z,1.70
2017-10-29T01:32:03.880Z,1.53
2017-10-29T01:34:34.652Z,1.50
2017-10-29T01:37:05.402Z,1.40
2017-10-29T01:39:36.205Z,1.60
2017-10-29T01:42:06.961Z,1.50
2017-10-29T01:44:37.742Z,1.60
2017-10-29T01:47:08.486Z,1.50
2017-10-29T01:49:39.256Z,1.20
2017-10-29T01:52:10.033Z,1.40
2017-10-29T01:54:40.781Z,1.40
2017-10-29T01:57:11.548Z,1.47
2017-10-29T01:59:42.337Z,1.40
2017-10-29T02:02:13.097Z,1.33
2017-10-29T02:04:43.869Z,1.30
2017-10-29T02:07:14.624Z,1.37
2017-10-29T02:09:45.402Z,1.57
2017-10-29T02:12:16.180Z,1.30
2017-10-29T02:14:46.937Z,1.47
2017-10-29T02:17:17.731Z,1.50
2017-10-29T02:19:48.489Z,1.30
2017-10-29T02:22:19.261Z,1.40
2017-10-29T02:24:50.008Z,1.50
2017-10-29T02:27:20.770Z,1.43
2017-10-29T02:29:51.562Z,1.40
2017-10-29T02:32:22.320Z,1.40
2017-10-29T02:34:53.097Z,1.30
2017-10-29T02:37:23.864Z,1.43
2017-10-29T02:39:54.628Z,1.40
2017-10-29T02:42:25.393Z,1.40
2017-10-29T02:44:56.161Z,1.40
2017-10-29T02:47:26.933Z,1.10
2017-10-29T02:49:57.696Z,1.53
2017-10-29T02:52:28.457Z,1.50
2017-10-29T02:54:59.225Z,1.20
2017-10-29T02:57:30.009Z,1.37
2017-10-29T03:00:00.772Z,1.20
2017-10-29T03:02:31.562Z,1.40
2017-10-29T03:05:02.306Z,1.43
2017-10-29T03:07:33.077Z,1.20
2017-10-29T03:10:03.861Z,1.33
2017-10-29T03:12:34.605Z,1.30
2017-10-29T03:15:05.373Z,1.23
2017-10-29T03:17:36.126Z,1.30
2017-10-29T03:20:06.925Z,1.30
2017-10-29T03:22:37.701Z,1.60
2017-10-29T03:25:08.485Z,1.20
2017-10-29T03:27:39.220Z,1.30
2017-10-29T03:30:10.016Z,1.20
2017-10-29T03:32:40.776Z,1.33
2017-10-29T03:35:11.547Z,1.30
2017-10-29T03:37:42.300Z,1.30
2017-10-29T03:40:13.075Z,1.10
2017-10-29T03:42:43.853Z,1.30
2017-10-29T03:45:14.605Z,1.17
2017-10-29T03:47:45.392Z,1.27
2017-10-29T03:50:16.169Z,1.10
2017-10-29T03:52:46.942Z,1.37
2017-10-29T03:55:17.689Z,1.00
2017-10-29T03:57:48.463Z,1.20
2017-10-29T04:00:19.256Z,1.20
2017-10-29T04:02:50.024Z,1.03
2017-10-29T04:05:20.811Z,1.17
2017-10-29T04:07:51.589Z,1.17
2017-10-29T04:10:22.363Z,1.20
2017-10-29T04:12:53.120Z,1.07
2017-10-29T04:15:23.892Z,1.27
2017-10-29T04:17:54.641Z,1.10
2017-10-29T04:20:25.413Z,1.00
2017-10-29T04:22:56.225Z,1.00
2017-10-29T04:25:26.992Z,1.10
2017-10-29T04:27:57.782Z,1.20
2017-10-29T04:30:28.551Z,1.23
2017-10-29T04:32:59.323Z,1.00
2017-10-29T04:35:30.081Z,1.10
2017-10-29T04:38:00.868Z,1.00
2017-10-29T04:40:31.649Z,1.10
2017-10-29T04:43:02.413Z,1.00
2017-10-29T04:45:33.174Z,1.17
2017-10-29T04:48:03.933Z,1.00
2017-10-29T04:50:34.741Z,1.10
2017-10-29T04:53:05.505Z,1.10
2017-10-29T04:55:36.297Z,0.90
2017-10-29T04:58:07.077Z,0.90
2017-10-29T05:00:37.850Z,1.00
2017-10-29T05:03:08.599Z,0.90
2017-10-29T05:05:39.361Z,1.07
2017-10-29T05:08:10.161Z,1.00
2017-10-29T05:10:40.900Z,0.80
2017-10-29T05:13:11.672Z,0.70
2017-10-29T05:15:42.448Z,1.00
2017-10-29T05:18:13.208Z,0.90
2017-10-29T05:20:43.969Z,1.03
2017-10-29T05:23:14.756Z,0.77
2017-10-29T05:25:45.513Z,1.03
2017-10-29T05:28:16.270Z,0.80
2017-10-29T05:30:47.029Z,0.90
2017-10-29T05:33:17.780Z,1.20
2017-10-29T05:35:48.542Z,0.90
2017-10-29T05:38:19.296Z,0.70
2017-10-29T05:40:50.064Z,0.70
2017-10-29T05:43:20.828Z,0.93
2017-10-29T05:45:51.617Z,1.00
2017-10-29T05:48:22.416Z,0.90
2017-10-29T05:50:53.171Z,1.00
2017-10-29T05:53:23.944Z,0.80
2017-10-29T05:55:54.704Z,0.90
2017-10-29T05:58:25.461Z,1.10
2017-10-29T06:00:56.282Z,0.80
2017-10-29T06:03:27.040Z,0.80
2017-10-29T06:05:57.820Z,0.80
2017-10-29T06:08:28.571Z,0.83
2017-10-29T06:10:59.353Z,0.80
2017-10-29T06:13:30.118Z,0.80
2017-10-29T06:16:00.905Z,0.70
2017-10-29T06:18:31.668Z,0.73
2017-10-29T06:21:02.455Z,0.67
2017-10-29T06:23:33.210Z,0.80
2017-10-29T06:26:03.973Z,0.90
2017-10-29T06:28:34.732Z,0.70
2017-10-29T06:31:05.501Z,0.80
2017-10-29T06:33:36.277Z,0.70
2017-10-29T06:36:07.037Z,0.73
2017-10-29T06:38:37.808Z,0.70
2017-10-29T06:41:08.553Z,0.77
2017-10-29T06:43:39.328Z,0.60
2017-10-29T06:46:10.111Z,0.70
2017-10-29T06:48:40.882Z,0.77
2017-10-29T06:51:11.672Z,0.63
2017-10-29T06:53:42.431Z,0.70
2017-10-29T06:56:13.215Z,0.80
2017-10-29T06:58:43.945Z,0.80
2017-10-29T07:01:14.733Z,0.80
2017-10-29T07:03:45.511Z,0.80
2017-10-29T07:06:16.280Z,0.90
2017-10-29T07:08:47.053Z,0.70
2017-10-29T07:11:17.813Z,0.70
2017-10-29T07:13:48.602Z,0.80
2017-10-29T07:16:19.381Z,0.80
2017-10-29T07:18:50.137Z,0.67
2017-10-29T07:21:20.913Z,0.90
2017-10-29T07:23:51.652Z,0.80
2017-10-29T07:26:22.413Z,0.80
2017-10-29T07:28:53.190Z,0.90
2017-10-29T07:31:23.961Z,0.73
2017-10-29T07:33:54.700Z,0.80
2017-10-29T07:36:25.476Z,0.97
2017-10-29T07:38:56.249Z,0.90
2017-10-29T07:41:27.041Z,0.80
2017-10-29T07:43:57.820Z,0.90
2017-10-29T07:46:28.579Z,0.70
2017-10-29T07:48:59.380Z,0.77
2017-10-29T07:51:30.140Z,0.77
2017-10-29T07:54:00.904Z,0.80
2017-10-29T07:56:32.529Z,0.67
2017-10-29T07:59:03.301Z,0.83
2017-10-29T08:01:34.085Z,0.80
2017-10-29T08:04:04.869Z,0.70
2017-10-29T08:06:35.660Z,0.80
2017-10-29T08:09:06.407Z,0.83
2017-10-29T08:11:37.192Z,0.60
2017-10-29T08:14:07.982Z,0.70
2017-10-29T08:16:38.733Z,0.77
2017-10-29T08:19:09.497Z,0.90
2017-10-29T08:21:40.244Z,0.80
2017-10-29T08:24:11.039Z,0.60
2017-10-29T08:26:41.797Z,0.80
2017-10-29T08:29:12.587Z,0.80
2017-10-29T08:31:43.352Z,0.80
2017-10-29T08:34:14.113Z,0.97
2017-10-29T08:36:44.901Z,0.80
2017-10-29T08:39:15.670Z,0.77
2017-10-29T08:41:46.427Z,0.70
2017-10-29T08:44:17.197Z,0.83
2017-10-29T08:46:47.984Z,0.70
2017-10-29T08:49:18.765Z,0.70
2017-10-29T08:51:49.541Z,0.77
2017-10-29T08:54:20.309Z,0.50
2017-10-29T08:56:51.092Z,0.50
2017-10-29T08:59:21.854Z,0.70
2017-10-29T09:01:52.629Z,0.83
2017-10-29T09:04:23.380Z,0.80
2017-10-29T09:06:54.168Z,1.00
2017-10-29T09:09:24.941Z,0.83
2017-10-29T09:11:55.717Z,0.90
2017-10-29T09:14:26.505Z,0.60
2017-10-29T09:16:57.269Z,0.63
2017-10-29T09:19:28.045Z,0.60
2017-10-29T09:21:58.794Z,1.10
2017-10-29T09:24:29.591Z,0.73
2017-10-29T09:27:00.352Z,0.80
2017-10-29T09:29:31.141Z,0.70
2017-10-29T09:32:01.944Z,0.90
2017-10-29T09:34:32.712Z,0.90
2017-10-29T09:37:03.485Z,1.00
2017-10-29T09:39:34.257Z,0.80
2017-10-29T09:42:05.021Z,0.70
2017-10-29T09:44:35.792Z,0.80
2017-10-29T09:47:06.547Z,0.77
2017-10-29T09:49:37.332Z,0.60
2017-10-29T09:52:08.100Z,0.70
2017-10-29T09:54:38.869Z,0.50
2017-10-29T09:57:09.651Z,0.70
2017-10-29T09:59:40.402Z,0.60
2017-10-29T10:02:11.153Z,0.60
2017-10-29T10:04:41.913Z,0.70
2017-10-29T10:07:12.690Z,0.80
2017-10-29T10:09:43.477Z,0.60
2017-10-29T10:12:14.252Z,0.87
2017-10-29T10:14:45.066Z,0.60
2017-10-29T10:17:15.816Z,0.80
2017-10-29T10:19:46.603Z,0.80
2017-10-29T10:22:17.377Z,0.90
2017-10-29T10:24:48.149Z,0.73
2017-10-29T10:27:18.933Z,0.70
2017-10-29T10:29:49.688Z,0.80
2017-10-29T10:32:20.478Z,0.77
2017-10-29T10:34:51.236Z,0.90
2017-10-29T10:37:21.996Z,0.90
2017-10-29T10:39:52.786Z,0.80
2017-10-29T10:42:23.579Z,0.70
2017-10-29T10:44:54.333Z,0.80
2017-10-29T10:47:25.101Z,1.10
2017-10-29T10:49:55.860Z,0.80
2017-10-29T10:52:26.681Z,1.10
2017-10-29T10:54:57.436Z,0.93
2017-10-29T10:57:28.212Z,0.87
2017-10-29T10:59:58.980Z,0.70
2017-10-29T11:02:29.778Z,0.80
2017-10-29T11:05:00.529Z,0.90
2017-10-29T11:07:31.316Z,0.70
2017-10-29T11:10:02.080Z,1.13
2017-10-29T11:12:32.838Z,0.80
2017-10-29T11:15:03.613Z,0.87
2017-10-29T11:17:34.381Z,0.93
2017-10-29T11:20:05.153Z,1.00
2017-10-29T11:22:35.916Z,1.10
2017-10-29T11:25:06.702Z,1.07
2017-10-29T11:27:37.734Z,1.23
2017-10-29T11:30:08.525Z,1.20
2017-10-29T11:32:39.273Z,1.17
2017-10-29T11:35:10.060Z,1.20
2017-10-29T11:37:40.825Z,1.20
2017-10-29T11:40:11.596Z,1.23
2017-10-29T11:42:42.369Z,0.97
2017-10-29T11:45:13.140Z,1.20
2017-10-29T11:47:43.909Z,1.27
2017-10-29T11:50:14.669Z,1.40
2017-10-29T11:52:45.437Z,1.40
2017-10-29T11:55:16.188Z,1.27
2017-10-29T11:57:46.953Z,1.30
2017-10-29T12:00:17.742Z,1.37
2017-10-29T12:02:48.531Z,1.40
2017-10-29T12:05:19.309Z,1.43
2017-10-29T12:07:50.073Z,1.33
2017-10-29T12:10:20.843Z,1.40
2017-10-29T12:12:51.591Z,1.43
2017-10-29T12:15:22.391Z,1.40
2017-10-29T12:17:53.161Z,1.50
2017-10-29T12:20:23.929Z,1.50
2017-10-29T12:22:54.705Z,1.53
2017-10-29T12:25:25.480Z,1.60
2017-10-29T12:27:56.229Z,1.70
2017-10-29T12:30:27.010Z,1.23
2017-10-29T12:32:57.771Z,1.70
2017-10-29T12:35:28.520Z,1.80
2017-10-29T12:37:59.274Z,1.60
2017-10-29T12:40:30.053Z,1.47
2017-10-29T12:43:00.812Z,1.70
2017-10-29T12:45:31.604Z,1.50
2017-10-29T12:48:02.377Z,1.57
2017-10-29T12:50:33.141Z,1.70
2017-10-29T12:53:03.929Z,1.50
2017-10-29T12:55:34.680Z,1.60
2017-10-29T12:58:05.459Z,1.60
2017-10-29T13:00:36.212Z,1.57
2017-10-29T13:03:07.001Z,1.87
2017-10-29T13:05:37.761Z,1.83
2017-10-29T13:08:08.540Z,1.60
2017-10-29T13:10:39.308Z,1.63
2017-10-29T13:13:10.082Z,1.80
2017-10-29T13:15:40.852Z,1.93
2017-10-29T13:18:11.600Z,1.70
2017-10-29T13:20:42.344Z,2.00
2017-10-29T13:23:13.135Z,1.47
2017-10-29T13:25:43.887Z,1.60
2017-10-29T13:28:14.637Z,2.00
2017-10-29T13:30:45.429Z,1.63
2017-10-29T13:33:16.181Z,1.77
2017-10-29T13:35:46.971Z,1.90
2017-10-29T13:38:17.717Z,1.80
2017-10-29T13:40:48.752Z,2.20
2017-10-29T13:43:19.565Z,1.77
2017-10-29T13:45:50.332Z,1.80
2017-10-29T13:48:21.088Z,1.97
2017-10-29T13:50:51.880Z,1.63
2017-10-29T13:53:22.639Z,1.90
2017-10-29T13:55:53.438Z,1.77
2017-10-29T13:58:24.209Z,1.90
2017-10-29T14:00:54.990Z,1.60
2017-10-29T14:03:25.762Z,1.70
2017-10-29T14:05:56.509Z,1.80
2017-10-29T14:08:27.293Z,1.80
2017-10-29T14:10:58.050Z,2.07
2017-10-29T14:13:28.831Z,1.97
2017-10-29T14:15:59.960Z,1.77
2017-10-29T14:18:30.721Z,1.80
2017-10-29T14:21:01.499Z,1.77
2017-10-29T14:23:32.253Z,1.80
2017-10-29T14:26:03.036Z,1.80
2017-10-29T14:28:33.804Z,1.87
2017-10-29T14:31:04.572Z,1.97
2017-10-29T14:33:35.353Z,1.60
2017-10-29T14:36:06.141Z,1.90
2017-10-29T14:38:36.921Z,1.80
2017-10-29T14:41:07.684Z,1.83
2017-10-29T14:43:38.459Z,1.73
2017-10-29T14:46:09.239Z,1.80
2017-10-29T14:48:39.987Z,1.77
2017-10-29T14:51:10.763Z,2.20
2017-10-29T14:53:41.541Z,1.90
2017-10-29T14:56:12.281Z,1.90
2017-10-29T14:58:43.057Z,1.83
2017-10-29T15:01:13.820Z,2.07
2017-10-29T15:03:44.609Z,1.90
2017-10-29T15:06:15.370Z,1.90
2017-10-29T15:08:46.158Z,2.00
2017-10-29T15:11:16.896Z,1.80
2017-10-29T15:13:47.671Z,2.00
2017-10-29T15:16:18.446Z,2.10
2017-10-29T15:18:49.193Z,1.90
2017-10-29T15:21:19.978Z,1.80
2017-10-29T15:23:50.736Z,1.77
2017-10-29T15:26:21.504Z,2.03
2017-10-29T15:28:52.265Z,1.83
2017-10-29T15:31:23.044Z,2.00
2017-10-29T15:33:53.824Z,2.20
2017-10-29T15:36:24.601Z,1.73
2017-10-29T15:38:55.369Z,2.00
2017-10-29T15:41:26.123Z,1.80
2017-10-29T15:43:56.880Z,1.80
2017-10-29T15:46:27.633Z,1.80
2017-10-29T15:48:58.401Z,1.80
2017-10-29T15:51:29.176Z,1.83
2017-10-29T15:53:59.942Z,1.90
2017-10-29T15:56:30.697Z,2.00
2017-10-29T15:59:01.464Z,1.90
2017-10-29T16:01:32.217Z,2.00
2017-10-29T16:04:03.012Z,2.00
2017-10-29T16:06:33.764Z,1.90
2017-10-29T16:09:04.533Z,1.73
2017-10-29T16:11:35.297Z,1.80
2017-10-29T16:14:06.068Z,2.10
2017-10-29T16:16:36.840Z,1.83
2017-10-29T16:19:07.620Z,2.00
2017-10-29T16:21:38.373Z,2.07
2017-10-29T16:24:09.126Z,1.90
2017-10-29T16:26:39.926Z,2.00
2017-10-29T16:29:10.701Z,1.80
2017-10-29T16:31:41.470Z,1.93
2017-10-29T16:34:12.261Z,1.77
2017-10-29T16:36:43.039Z,1.70
2017-10-29T16:39:13.921Z,1.90
2017-10-29T16:41:44.761Z,1.83
2017-10-29T16:44:15.537Z,1.87
2017-10-29T16:46:46.311Z,1.80
2017-10-29T16:49:17.084Z,1.90
2017-10-29T16:51:47.828Z,2.17
2017-10-29T16:54:18.601Z,1.90
2017-10-29T16:56:49.353Z,1.93
2017-10-29T16:59:20.118Z,1.90
2017-10-29T17:01:50.893Z,1.80
2017-10-29T17:04:21.645Z,1.70
2017-10-29T17:06:52.429Z,2.00
2017-10-29T17:09:23.209Z,2.10
2017-10-29T17:11:53.949Z,2.00
2017-10-29T17:14:24.728Z,1.90
2017-10-29T17:16:55.515Z,2.07
2017-10-29T17:19:26.269Z,2.00
2017-10-29T17:21:57.113Z,2.20
2017-10-29T17:24:27.879Z,2.13
2017-10-29T17:26:58.672Z,2.10
2017-10-29T17:29:29.450Z,2.07
2017-10-29T17:32:00.254Z,1.83
2017-10-29T17:34:30.983Z,2.00
2017-10-29T17:37:01.788Z,2.07
2017-10-29T17:39:32.541Z,2.10
2017-10-29T17:42:03.314Z,1.90
2017-10-29T17:44:34.080Z,2.10
2017-10-29T17:47:04.850Z,2.10
2017-10-29T17:49:35.631Z,2.00
2017-10-29T17:52:06.400Z,2.00
2017-10-29T17:54:37.173Z,2.10
2017-10-29T17:57:07.953Z,2.20
2017-10-29T17:59:38.721Z,1.90
2017-10-29T18:02:09.457Z,2.10
2017-10-29T18:04:40.225Z,2.10
2017-10-29T18:07:10.997Z,2.20
2017-10-29T18:09:41.768Z,2.13
2017-10-29T18:12:12.517Z,2.00
2017-10-29T18:14:43.601Z,2.07
2017-10-29T18:17:14.391Z,2.10
2017-10-29T18:19:45.189Z,2.70
2017-10-29T18:22:15.952Z,2.00
2017-10-29T18:24:46.734Z,2.03
2017-10-29T18:27:17.501Z,2.23
2017-10-29T18:29:48.268Z,2.23
2017-10-29T18:32:19.025Z,2.40
2017-10-29T18:34:49.784Z,2.10
2017-10-29T18:37:20.576Z,2.20
2017-10-29T18:39:51.340Z,1.93
2017-10-29T18:42:22.111Z,2.30
2017-10-29T18:44:52.920Z,2.40
2017-10-29T18:47:23.725Z,2.20
2017-10-29T18:49:54.512Z,2.43
2017-10-29T18:52:25.308Z,2.40
2017-10-29T18:54:56.058Z,2.33
2017-10-29T18:57:26.829Z,2.03
2017-10-29T18:59:57.609Z,2.30
2017-10-29T19:02:28.380Z,2.40
2017-10-29T19:04:59.170Z,2.17
2017-10-29T19:07:29.960Z,2.33
2017-10-29T19:10:01.052Z,2.23
2017-10-29T19:12:32.178Z,2.30
2017-10-29T19:15:02.941Z,2.20
2017-10-29T19:17:33.733Z,2.10
2017-10-29T19:20:04.473Z,2.33
2017-10-29T19:22:35.277Z,2.50
2017-10-29T19:25:06.040Z,2.03
2017-10-29T19:27:36.813Z,2.33
2017-10-29T19:30:07.577Z,2.20
2017-10-29T19:32:38.372Z,2.27
2017-10-29T19:35:09.144Z,2.10
2017-10-29T19:37:39.989Z,2.30
2017-10-29T19:40:10.766Z,2.07
2017-10-29T19:42:41.534Z,2.17
2017-10-29T19:45:12.298Z,1.97
2017-10-29T19:47:43.066Z,2.10
2017-10-29T19:50:13.813Z,2.20
2017-10-29T19:52:44.600Z,2.40
2017-10-29T19:55:15.422Z,2.17
2017-10-29T19:57:46.188Z,2.07
2017-10-29T20:00:16.953Z,2.30
2017-10-29T20:02:47.748Z,2.37
2017-10-29T20:05:18.500Z,2.20
2017-10-29T20:07:49.280Z,2.20
2017-10-29T20:10:20.049Z,2.23
2017-10-29T20:12:50.825Z,2.10
2017-10-29T20:15:21.590Z,2.03
2017-10-29T20:17:52.371Z,2.00
2017-10-29T20:20:23.124Z,2.00
2017-10-29T20:22:53.899Z,2.17
2017-10-29T20:25:24.684Z,2.30
2017-10-29T20:27:55.460Z,2.10
2017-10-29T20:30:26.201Z,2.20
2017-10-29T20:32:56.981Z,2.10
2017-10-29T20:35:28.140Z,2.03
2017-10-29T20:37:58.918Z,2.20
2017-10-29T20:40:29.721Z,2.40
2017-10-29T20:43:00.489Z,2.30
2017-10-29T20:45:31.269Z,2.37
2017-10-29T20:48:02.048Z,2.03
2017-10-29T20:50:32.788Z,2.10
2017-10-29T20:53:03.567Z,2.07
2017-10-29T20:55:34.339Z,2.37
2017-10-29T20:58:05.092Z,2.27
2017-10-29T21:00:35.860Z,2.20
2017-10-29T21:03:06.649Z,2.20
2017-10-29T21:05:37.413Z,1.93
2017-10-29T21:08:08.193Z,2.10
2017-10-29T21:10:38.973Z,2.07
2017-10-29T21:13:09.761Z,2.30
2017-10-29T21:15:40.510Z,2.10
2017-10-29T21:18:11.290Z,2.10
2017-10-29T21:20:42.070Z,2.20
2017-10-29T21:23:12.874Z,2.27
2017-10-29T21:25:43.658Z,2.00
2017-10-29T21:28:14.478Z,2.20
2017-10-29T21:30:45.255Z,2.30
2017-10-29T21:33:16.044Z,2.10
2017-10-29T21:35:46.823Z,2.20
2017-10-29T21:38:17.582Z,2.17
2017-10-29T21:40:48.388Z,1.90
2017-10-29T21:43:19.162Z,1.93
2017-10-29T21:45:49.909Z,2.07
2017-10-29T21:48:20.690Z,2.10
2017-10-29T21:50:51.461Z,1.83
2017-10-29T21:53:22.232Z,2.23
2017-10-29T21:55:53.028Z,2.23
2017-10-29T21:58:23.789Z,2.10
2017-10-29T22:00:54.539Z,2.10
2017-10-29T22:03:25.332Z,2.17
2017-10-29T22:05:56.097Z,1.90
2017-10-29T22:08:26.890Z,1.90
2017-10-29T22:10:57.665Z,2.10
2017-10-29T22:13:28.498Z,2.00
2017-10-29T22:15:59.271Z,2.23
2017-10-29T22:18:30.040Z,2.20
2017-10-29T22:21:00.833Z,2.20
2017-10-29T22:23:31.617Z,2.20
2017-10-29T22:26:02.390Z,2.10
2017-10-29T22:28:33.149Z,2.17
2017-10-29T22:31:03.948Z,2.23
2017-10-29T22:33:34.702Z,2.07
2017-10-29T22:36:05.469Z,2.10
2017-10-29T22:38:36.269Z,2.00
2017-10-29T22:41:07.038Z,1.80
2017-10-29T22:43:37.860Z,1.90
2017-10-29T22:46:08.617Z,2.23
2017-10-29T22:48:39.409Z,1.90
2017-10-29T22:51:10.177Z,2.07
2017-10-29T22:53:40.980Z,2.10
2017-10-29T22:56:11.775Z,2.10
2017-10-29T22:58:42.536Z,1.93
2017-10-29T23:01:14.057Z,1.90
2017-10-29T23:03:44.853Z,2.10
2017-10-29T23:06:15.683Z,2.00
2017-10-29T23:08:46.993Z,1.90
2017-10-29T23:11:17.806Z,2.30
2017-10-29T23:13:48.556Z,1.93
2017-10-29T23:16:19.328Z,2.23
2017-10-29T23:18:50.096Z,2.00
2017-10-29T23:21:20.849Z,2.17
2017-10-29T23:23:51.608Z,2.10
2017-10-29T23:26:22.415Z,2.03
2017-10-29T23:28:53.181Z,2.00
2017-10-29T23:31:23.990Z,2.10
2017-10-29T23:33:54.749Z,2.00
2017-10-29T23:36:25.559Z,2.20
2017-10-29T23:38:56.304Z,2.07
2017-10-29T23:41:27.118Z,1.93
2017-10-29T23:43:57.888Z,2.10
2017-10-29T23:46:28.669Z,1.93
2017-10-29T23:48:59.448Z,2.00
2017-10-29T23:51:30.225Z,1.97
2017-10-29T23:54:01.001Z,1.87
2017-10-29T23:56:31.749Z,2.00
2017-10-29T23:59:02.570Z,2.00
